Time;durP1;ratioP1;P1;durP2;ratioP2;P2;SDS_P1;SDS_P2;PMS_P1;PMS_P2;Temp;Humidity;BMP_temperature;BMP_pressure;BME280_temperature;BME280_humidity;BME280_pressure;Samples;Min_cycle;Max_cycle;Signal;HPM_P1;HPM_P2
2021/01/14 00:01:26;;;;;;;2.90;2.70;;;3.70;99.90;;;;;;5071403;28;20270;-42
2021/01/14 00:03:53;;;;;;;3.17;2.97;;;3.70;99.90;;;;;;5071512;28;20229;-41
2021/01/14 00:06:21;;;;;;;3.43;3.20;;;3.70;99.90;;;;;;5071711;28;20576;-41
2021/01/14 00:08:48;;;;;;;3.27;2.97;;;3.60;99.90;;;;;;5071530;28;20207;-42
2021/01/14 00:11:16;;;;;;;3.00;2.80;;;3.60;99.90;;;;;;5071517;28;20298;-42
2021/01/14 00:13:44;;;;;;;2.90;2.70;;;3.60;99.90;;;;;;5071563;28;20510;-43
2021/01/14 00:16:10;;;;;;;3.33;3.03;;;3.60;99.90;;;;;;5071373;28;20589;-43
2021/01/14 00:18:37;;;;;;;1.95;1.85;;;3.60;99.90;;;;;;5071593;28;20239;-43
2021/01/14 00:21:05;;;;;;;3.30;3.00;;;3.60;99.90;;;;;;5071313;28;20689;-44
2021/01/14 00:23:33;;;;;;;6.50;3.33;;;3.60;99.90;;;;;;5071365;28;20302;-43
2021/01/14 00:26:00;;;;;;;5.00;2.90;;;3.50;99.90;;;;;;5071276;28;20213;-44
2021/01/14 00:28:27;;;;;;;2.90;2.70;;;3.50;99.90;;;;;;5071408;28;20258;-43
2021/01/14 00:30:54;;;;;;;2.75;2.50;;;3.50;99.90;;;;;;5071119;28;20637;-43
2021/01/14 00:33:21;;;;;;;4.13;3.08;;;3.50;99.90;;;;;;5071388;28;20208;-43
2021/01/14 00:35:48;;;;;;;3.63;3.33;;;3.50;99.90;;;;;;5071160;28;20211;-44
2021/01/14 00:38:15;;;;;;;3.73;3.00;;;3.50;99.90;;;;;;5071282;28;20257;-43
2021/01/14 00:40:43;;;;;;;3.17;2.90;;;3.50;99.90;;;;;;5071276;28;20214;-44
2021/01/14 00:43:12;;;;;;;2.87;2.63;;;3.50;99.90;;;;;;5071061;28;20238;-43
2021/01/14 00:45:39;;;;;;;5.30;2.80;;;3.50;99.90;;;;;;5071007;28;20211;-43
2021/01/14 00:48:07;;;;;;;3.30;2.87;;;3.50;99.90;;;;;;5071407;28;20204;-43
2021/01/14 00:50:34;;;;;;;3.50;2.70;;;3.50;99.90;;;;;;5071077;28;20684;-44
2021/01/14 00:53:01;;;;;;;3.13;2.80;;;3.50;99.90;;;;;;5070987;28;20200;-42
2021/01/14 00:55:28;;;;;;;2.93;2.73;;;3.40;99.90;;;;;;5071069;28;20211;-43
2021/01/14 00:57:56;;;;;;;2.40;2.20;;;3.40;99.90;;;;;;5070887;28;20249;-43
2021/01/14 01:00:23;;;;;;;2.80;2.60;;;3.40;99.90;;;;;;5073785;28;20250;-45
2021/01/14 01:02:52;;;;;;;2.70;2.50;;;3.40;99.90;;;;;;5074629;28;20650;-44
2021/01/14 01:05:20;;;;;;;2.70;2.50;;;3.30;99.90;;;;;;5074761;28;20254;-44
2021/01/14 01:07:49;;;;;;;3.97;3.23;;;3.30;99.90;;;;;;5074610;28;20668;-43
2021/01/14 01:10:16;;;;;;;2.50;2.30;;;3.40;99.90;;;;;;5074548;28;20232;-43
2021/01/14 01:12:44;;;;;;;3.10;2.80;;;3.30;99.90;;;;;;5074192;28;20642;-42
2021/01/14 01:15:12;;;;;;;3.30;2.33;;;3.30;99.90;;;;;;5074511;28;20294;-43
2021/01/14 01:17:39;;;;;;;4.03;2.60;;;3.30;99.90;;;;;;5074355;28;20211;-45
2021/01/14 01:20:08;;;;;;;3.10;2.80;;;3.30;99.90;;;;;;5074236;28;20234;-43
2021/01/14 01:22:35;;;;;;;2.60;2.40;;;3.30;99.90;;;;;;5074190;28;20281;-44
2021/01/14 01:25:02;;;;;;;2.63;2.43;;;3.20;99.90;;;;;;5074213;28;20211;-42
2021/01/14 01:27:29;;;;;;;2.72;2.53;;;3.30;99.90;;;;;;5074161;28;20218;-43
2021/01/14 01:29:56;;;;;;;3.00;2.47;;;3.20;99.90;;;;;;5074125;28;20744;-41
2021/01/14 01:32:25;;;;;;;2.83;2.63;;;3.30;99.90;;;;;;5074084;28;20204;-42
2021/01/14 01:34:52;;;;;;;2.93;2.73;;;3.30;99.90;;;;;;5074013;28;20439;-42
2021/01/14 01:37:19;;;;;;;2.85;2.63;;;3.30;99.90;;;;;;5074251;28;20214;-41
2021/01/14 01:39:46;;;;;;;4.37;3.00;;;3.30;99.90;;;;;;5074060;28;20286;-41
2021/01/14 01:42:13;;;;;;;3.22;2.92;;;3.30;99.90;;;;;;5073951;28;20270;-40
2021/01/14 01:44:40;;;;;;;4.95;3.47;;;3.30;99.90;;;;;;5074131;28;20257;-42
2021/01/14 01:47:07;;;;;;;3.23;3.00;;;3.30;99.90;;;;;;5073793;28;20211;-42
2021/01/14 01:49:36;;;;;;;3.50;3.30;;;3.30;99.90;;;;;;5073865;28;20302;-41
2021/01/14 01:52:06;;;;;;;3.40;3.10;;;3.30;99.90;;;;;;5073736;28;20200;-43
2021/01/14 01:54:34;;;;;;;3.23;2.97;;;3.30;99.90;;;;;;5073769;28;20585;-41
2021/01/14 01:57:01;;;;;;;3.20;2.90;;;3.30;99.90;;;;;;5073809;28;20615;-41
2021/01/14 01:59:31;;;;;;;3.97;3.07;;;3.30;99.90;;;;;;5073669;28;20207;-41
2021/01/14 02:01:58;;;;;;;4.17;3.77;;;3.30;99.90;;;;;;5073568;28;20311;-41
2021/01/14 02:04:25;;;;;;;3.70;3.40;;;3.20;99.90;;;;;;5073435;28;20211;-41
2021/01/14 02:07:03;;;;;;;3.50;3.17;;;3.30;99.90;;;;;;5073340;28;20840;-41
2021/01/14 02:09:31;;;;;;;5.50;3.17;;;3.30;99.90;;;;;;5073372;28;20736;-43
2021/01/14 02:12:03;;;;;;;3.70;3.27;;;3.30;99.90;;;;;;5072284;28;20326;-42
2021/01/14 02:14:33;;;;;;;4.23;3.83;;;3.30;99.90;;;;;;5073485;28;20211;-43
2021/01/14 02:17:01;;;;;;;4.93;3.73;;;3.30;99.90;;;;;;5073206;28;20302;-41
2021/01/14 02:19:37;;;;;;;3.97;3.67;;;3.30;99.90;;;;;;5073482;28;20210;-44
2021/01/14 02:22:17;;;;;;;3.83;3.53;;;3.40;99.90;;;;;;5073398;28;20234;-42
2021/01/14 02:24:51;;;;;;;4.70;4.30;;;3.40;99.90;;;;;;5072964;28;20215;-41
2021/01/14 02:27:19;;;;;;;3.77;3.47;;;3.30;99.90;;;;;;5073162;28;20237;-43
2021/01/14 02:29:46;;;;;;;3.90;3.60;;;3.40;99.90;;;;;;5072887;28;20210;-43
2021/01/14 02:32:17;;;;;;;4.30;3.92;;;3.30;99.90;;;;;;5073085;28;20234;-41
2021/01/14 02:34:49;;;;;;;4.90;4.40;;;3.30;99.90;;;;;;5072896;28;20215;-41
2021/01/14 02:37:16;;;;;;;4.50;4.10;;;3.30;99.90;;;;;;5073132;28;20302;-42
2021/01/14 02:39:43;;;;;;;4.63;4.23;;;3.30;99.90;;;;;;5072736;28;20302;-44
2021/01/14 02:42:10;;;;;;;3.70;3.47;;;3.30;99.90;;;;;;5072592;28;20314;-41
2021/01/14 02:44:38;;;;;;;4.10;3.75;;;3.20;99.90;;;;;;5072754;28;20560;-41
2021/01/14 02:47:08;;;;;;;3.58;3.10;;;3.20;99.90;;;;;;5072515;28;20745;-43
2021/01/14 02:49:49;;;;;;;4.40;4.00;;;3.10;99.90;;;;;;5072734;28;20239;-41
2021/01/14 02:52:18;;;;;;;3.70;3.40;;;3.10;99.90;;;;;;5072552;28;20306;-42
2021/01/14 02:54:46;;;;;;;3.83;3.53;;;3.10;99.90;;;;;;5072390;28;20235;-42
2021/01/14 02:57:16;;;;;;;3.90;3.60;;;3.10;99.90;;;;;;5072381;28;20633;-41
2021/01/14 02:59:45;;;;;;;3.70;3.20;;;3.10;99.90;;;;;;5072407;28;20299;-40
2021/01/14 03:02:12;;;;;;;3.70;3.40;;;3.10;99.90;;;;;;5072237;28;20223;-41
2021/01/14 03:04:39;;;;;;;4.00;3.60;;;3.10;99.90;;;;;;5072481;28;20250;-40
2021/01/14 03:07:06;;;;;;;6.13;4.10;;;3.10;99.90;;;;;;5072000;28;20207;-41
2021/01/14 03:09:33;;;;;;;3.77;3.37;;;3.10;99.90;;;;;;5072402;28;20303;-41
2021/01/14 03:12:00;;;;;;;6.50;2.90;;;3.10;99.90;;;;;;5072171;28;20319;-41
2021/01/14 03:14:27;;;;;;;4.43;3.40;;;3.10;99.90;;;;;;5072123;28;20203;-41
2021/01/14 03:16:55;;;;;;;4.00;3.47;;;3.10;99.90;;;;;;5072035;28;20310;-41
2021/01/14 03:19:22;;;;;;;4.77;3.37;;;3.00;99.90;;;;;;5072104;28;20204;-42
2021/01/14 03:21:49;;;;;;;4.70;3.92;;;3.00;99.90;;;;;;5071446;28;20326;-41
2021/01/14 03:24:16;;;;;;;4.93;4.03;;;3.00;99.90;;;;;;5072251;28;20242;-41
2021/01/14 03:26:43;;;;;;;4.00;3.60;;;3.00;99.90;;;;;;5072118;28;20208;-41
2021/01/14 03:29:10;;;;;;;3.77;3.37;;;3.00;99.90;;;;;;5071861;28;20530;-41
2021/01/14 03:31:37;;;;;;;4.67;3.50;;;3.00;99.90;;;;;;5072009;28;20204;-42
2021/01/14 03:34:04;;;;;;;5.40;4.90;;;3.00;99.90;;;;;;5071731;28;20606;-43
2021/01/14 03:36:32;;;;;;;5.07;3.30;;;3.00;99.90;;;;;;5071927;28;20302;-43
2021/01/14 03:39:00;;;;;;;5.40;3.90;;;3.00;99.90;;;;;;5071676;28;20215;-41
2021/01/14 03:41:27;;;;;;;5.80;3.95;;;3.00;99.90;;;;;;5071806;28;20207;-43
2021/01/14 03:43:54;;;;;;;5.23;3.77;;;3.00;99.90;;;;;;5071779;28;20613;-43
2021/01/14 03:46:21;;;;;;;5.20;3.77;;;3.00;99.90;;;;;;5071682;28;20207;-44
2021/01/14 03:48:49;;;;;;;4.40;4.00;;;3.00;99.90;;;;;;5071593;28;20284;-43
2021/01/14 03:51:18;;;;;;;5.13;4.00;;;3.00;99.90;;;;;;5071522;28;20658;-43
2021/01/14 03:53:46;;;;;;;4.33;3.67;;;3.10;99.90;;;;;;5071585;28;20204;-46
2021/01/14 03:56:13;;;;;;;5.72;4.82;;;3.10;99.90;;;;;;5071650;28;20215;-44
2021/01/14 03:58:40;;;;;;;6.10;5.13;;;3.10;99.90;;;;;;5071524;28;20203;-42
2021/01/14 04:01:07;;;;;;;5.80;5.20;;;3.10;99.90;;;;;;5071392;28;20603;-42
2021/01/14 04:03:38;;;;;;;5.77;5.07;;;3.00;99.90;;;;;;5071313;28;20803;-42
2021/01/14 04:06:05;;;;;;;6.03;5.13;;;3.00;99.90;;;;;;5071384;28;20211;-41
2021/01/14 04:08:33;;;;;;;4.17;3.77;;;3.10;99.90;;;;;;5071563;28;20214;-42
2021/01/14 04:11:00;;;;;;;4.40;4.00;;;3.10;99.90;;;;;;5071467;28;20215;-43
2021/01/14 04:13:27;;;;;;;5.77;5.20;;;3.10;99.90;;;;;;5071347;28;20326;-41
2021/01/14 04:15:54;;;;;;;5.10;4.60;;;3.20;99.90;;;;;;5071218;28;20298;-42
2021/01/14 04:18:21;;;;;;;6.00;5.40;;;3.10;99.90;;;;;;5071284;28;20298;-41
2021/01/14 04:20:48;;;;;;;6.80;5.60;;;3.20;99.90;;;;;;5071483;28;20253;-43
2021/01/14 04:23:15;;;;;;;7.90;5.87;;;3.20;99.90;;;;;;5071301;28;20776;-41
2021/01/14 04:25:44;;;;;;;6.37;5.53;;;3.20;99.90;;;;;;5071354;28;20207;-42
2021/01/14 04:28:11;;;;;;;9.97;6.73;;;3.30;99.90;;;;;;5071478;28;20294;-44
2021/01/14 04:30:39;;;;;;;9.97;8.60;;;3.30;99.90;;;;;;5071248;28;20208;-41
2021/01/14 04:33:11;;;;;;;8.73;7.70;;;3.30;99.90;;;;;;5071472;28;20219;-42
2021/01/14 04:35:44;;;;;;;8.63;7.40;;;3.30;99.90;;;;;;5074611;28;20214;-43
2021/01/14 04:38:11;;;;;;;12.43;8.03;;;3.40;99.90;;;;;;5075341;28;20580;-44
2021/01/14 04:40:39;;;;;;;10.63;8.30;;;3.30;99.90;;;;;;5075091;28;20238;-44
2021/01/14 04:43:10;;;;;;;8.90;8.10;;;3.30;99.90;;;;;;5074938;28;20322;-44
2021/01/14 04:45:39;;;;;;;7.83;7.10;;;3.30;99.90;;;;;;5075228;28;20270;-43
2021/01/14 04:48:09;;;;;;;7.10;6.50;;;3.30;99.90;;;;;;5075185;28;20359;-45
2021/01/14 04:50:37;;;;;;;9.00;6.03;;;3.30;99.90;;;;;;5075261;28;20355;-43
2021/01/14 04:53:06;;;;;;;6.17;5.57;;;3.30;99.90;;;;;;5075002;28;20207;-42
2021/01/14 04:55:43;;;;;;;5.20;4.80;;;3.30;99.90;;;;;;5074830;28;20204;-43
2021/01/14 04:58:15;;;;;;;6.37;5.60;;;3.20;99.90;;;;;;5075116;28;20204;-41
2021/01/14 05:00:47;;;;;;;6.63;5.90;;;3.20;99.90;;;;;;5074956;28;20214;-41
2021/01/14 05:03:23;;;;;;;5.67;5.00;;;3.20;99.90;;;;;;5074119;28;20223;-41
2021/01/14 05:05:51;;;;;;;5.40;4.83;;;3.20;99.90;;;;;;5074748;28;20637;-42
2021/01/14 05:08:26;;;;;;;7.33;5.40;;;3.20;99.90;;;;;;5074844;28;20608;-42
2021/01/14 05:10:54;;;;;;;5.53;5.00;;;3.10;99.90;;;;;;5074771;28;20207;-44
2021/01/14 05:13:22;;;;;;;7.87;5.73;;;3.20;99.90;;;;;;5074447;28;20264;-42
2021/01/14 05:15:49;;;;;;;7.73;5.40;;;3.10;99.90;;;;;;5074441;28;20302;-41
2021/01/14 05:18:16;;;;;;;5.30;4.80;;;3.10;99.90;;;;;;5074371;28;20638;-43
2021/01/14 05:20:43;;;;;;;6.60;5.23;;;3.10;99.90;;;;;;5074111;28;20298;-46
2021/01/14 05:23:12;;;;;;;6.00;4.90;;;3.10;99.90;;;;;;5074416;28;20231;-46
2021/01/14 05:25:51;;;;;;;8.77;5.80;;;3.10;99.90;;;;;;5074311;28;20215;-46
2021/01/14 05:28:20;;;;;;;5.83;5.23;;;3.00;99.90;;;;;;5074394;28;20307;-46
2021/01/14 05:30:48;;;;;;;5.40;4.90;;;3.00;99.90;;;;;;5074024;28;20302;-48
2021/01/14 05:33:16;;;;;;;6.50;5.90;;;3.00;99.90;;;;;;5074317;28;20243;-44
2021/01/14 05:35:50;;;;;;;7.80;5.73;;;3.00;99.90;;;;;;5074065;28;20247;-44
2021/01/14 05:38:28;;;;;;;9.23;6.63;;;3.00;99.90;;;;;;5073909;28;20678;-44
2021/01/14 05:41:18;;;;;;;7.93;5.87;;;3.00;99.90;;;;;;5074007;28;20286;-44
2021/01/14 05:43:53;;;;;;;6.80;5.60;;;3.00;99.90;;;;;;5073833;28;20581;-44
2021/01/14 05:46:22;;;;;;;6.20;5.60;;;3.00;99.90;;;;;;5073732;28;20246;-41
2021/01/14 05:48:50;;;;;;;6.30;5.13;;;3.10;99.90;;;;;;5073953;28;20705;-40
2021/01/14 05:51:22;;;;;;;7.17;5.47;;;3.10;99.90;;;;;;5073760;28;20247;-40
2021/01/14 05:53:54;;;;;;;6.10;5.50;;;3.10;99.90;;;;;;5073833;28;20231;-40
2021/01/14 05:56:35;;;;;;;5.82;5.32;;;3.10;99.90;;;;;;5073839;28;20294;-44
2021/01/14 05:59:03;;;;;;;8.07;6.10;;;3.10;99.90;;;;;;5073727;28;20697;-43
2021/01/14 06:01:31;;;;;;;6.63;5.93;;;3.10;99.90;;;;;;5073796;28;20263;-44
2021/01/14 06:04:17;;;;;;;5.67;5.03;;;3.10;99.90;;;;;;5073510;28;20237;-48
2021/01/14 06:06:49;;;;;;;6.77;5.03;;;3.10;99.90;;;;;;5073424;28;20653;-43
2021/01/14 06:09:17;;;;;;;6.17;5.50;;;3.10;99.90;;;;;;5073479;28;20264;-44
2021/01/14 06:11:46;;;;;;;6.90;5.90;;;3.10;99.90;;;;;;5073141;28;20331;-41
2021/01/14 06:14:30;;;;;;;6.33;5.60;;;3.10;99.90;;;;;;5073267;28;20286;-41
2021/01/14 06:17:00;;;;;;;6.73;6.07;;;3.10;99.90;;;;;;5073190;28;20734;-41
2021/01/14 06:19:27;;;;;;;19.43;12.87;;;3.00;99.90;;;;;;5073500;28;20207;-44
2021/01/14 06:21:56;;;;;;;10.40;7.23;;;3.00;99.90;;;;;;5073315;28;20238;-43
2021/01/14 06:24:25;;;;;;;8.33;5.97;;;3.00;99.90;;;;;;5073303;28;20259;-43
2021/01/14 06:26:57;;;;;;;7.70;6.53;;;3.00;99.90;;;;;;5073097;28;20730;-43
2021/01/14 06:29:27;;;;;;;6.37;5.73;;;2.90;99.90;;;;;;5073023;28;20251;-42
2021/01/14 06:32:10;;;;;;;6.97;6.37;;;3.00;99.90;;;;;;5073197;28;20207;-42
2021/01/14 06:34:39;;;;;;;9.83;6.50;;;3.00;99.90;;;;;;5073127;28;20215;-42
2021/01/14 06:37:09;;;;;;;9.70;6.07;;;3.00;99.90;;;;;;5073030;28;20256;-43
2021/01/14 06:39:47;;;;;;;7.80;5.73;;;3.00;99.90;;;;;;5072910;28;20757;-43
2021/01/14 06:42:22;;;;;;;7.03;6.33;;;3.00;99.90;;;;;;5072547;28;20203;-45
2021/01/14 06:44:57;;;;;;;6.47;5.37;;;3.00;99.90;;;;;;5072814;28;20248;-43
2021/01/14 06:47:40;;;;;;;9.82;6.18;;;3.00;99.90;;;;;;5072912;28;20653;-45
2021/01/14 06:50:23;;;;;;;6.33;5.50;;;3.00;99.90;;;;;;5072084;28;20221;-46
2021/01/14 06:53:03;;;;;;;9.50;5.93;;;3.00;99.90;;;;;;5072679;28;20272;-47
2021/01/14 06:55:33;;;;;;;6.70;5.57;;;2.90;99.90;;;;;;5072776;28;20584;-46
2021/01/14 06:58:08;;;;;;;6.00;5.50;;;2.90;99.90;;;;;;5071796;28;20214;-42
2021/01/14 07:00:38;;;;;;;7.50;5.87;;;2.90;99.90;;;;;;5072426;28;20253;-43
2021/01/14 07:03:24;;;;;;;9.17;6.17;;;2.80;99.90;;;;;;5072243;28;20697;-42
2021/01/14 07:06:06;;;;;;;6.23;5.37;;;2.80;99.90;;;;;;5072580;28;20266;-42
2021/01/14 07:08:36;;;;;;;7.00;5.63;;;2.80;99.90;;;;;;5072371;28;20247;-42
2021/01/14 07:11:09;;;;;;;6.63;5.43;;;2.80;99.90;;;;;;5072406;28;20295;-44
2021/01/14 07:13:38;;;;;;;7.67;5.30;;;2.80;99.90;;;;;;5072304;28;20252;-42
2021/01/14 07:16:06;;;;;;;7.83;5.60;;;2.80;99.90;;;;;;5072197;28;20207;-42
2021/01/14 07:18:35;;;;;;;10.77;6.27;;;2.70;99.90;;;;;;5072073;28;20294;-43
2021/01/14 07:21:11;;;;;;;6.10;5.20;;;2.70;99.90;;;;;;5072079;28;20302;-43
2021/01/14 07:23:46;;;;;;;6.40;5.80;;;2.70;99.90;;;;;;5072098;28;20689;-43
2021/01/14 07:26:14;;;;;;;5.73;4.93;;;2.70;99.90;;;;;;5071937;28;20301;-42
2021/01/14 07:28:41;;;;;;;5.70;5.05;;;2.70;99.90;;;;;;5071999;28;20218;-42
2021/01/14 07:31:19;;;;;;;6.50;4.87;;;2.70;99.90;;;;;;5071760;28;20298;-42
2021/01/14 07:33:47;;;;;;;6.20;4.60;;;2.70;99.90;;;;;;5071993;28;20654;-40
2021/01/14 07:36:19;;;;;;;6.17;5.07;;;2.70;99.90;;;;;;5071966;28;20302;-41
2021/01/14 07:38:48;;;;;;;7.03;5.33;;;2.70;99.90;;;;;;5071815;28;20644;-41
2021/01/14 07:41:15;;;;;;;9.87;5.47;;;2.70;99.90;;;;;;5071604;28;20303;-42
2021/01/14 07:43:45;;;;;;;6.30;5.37;;;2.70;99.90;;;;;;5071636;28;20310;-42
2021/01/14 07:46:17;;;;;;;8.40;5.30;;;2.70;99.90;;;;;;5071600;28;20211;-42
2021/01/14 07:48:44;;;;;;;8.20;5.00;;;2.80;99.90;;;;;;5071752;28;20247;-40
2021/01/14 07:51:12;;;;;;;7.47;5.33;;;2.80;99.90;;;;;;5071720;28;20207;-40
2021/01/14 07:53:39;;;;;;;9.90;5.60;;;2.80;99.90;;;;;;5071492;28;20203;-41
2021/01/14 07:56:31;;;;;;;5.70;5.10;;;2.80;99.90;;;;;;5071608;28;20246;-42
2021/01/14 07:59:02;;;;;;;11.30;7.83;;;2.80;99.90;;;;;;5066188;28;20700;-44
2021/01/14 08:01:29;;;;;;;5.67;4.90;;;2.80;99.90;;;;;;5071742;28;20333;-44
2021/01/14 08:03:56;;;;;;;6.93;5.83;;;2.70;99.90;;;;;;5071566;28;20721;-45
2021/01/14 08:06:27;;;;;;;7.97;6.17;;;2.70;99.90;;;;;;5071712;28;20211;-42
2021/01/14 08:08:59;;;;;;;6.90;5.50;;;2.70;99.90;;;;;;5072032;28;20229;-42
2021/01/14 08:11:27;;;;;;;7.60;5.53;;;2.70;99.90;;;;;;5075402;28;20217;-42
2021/01/14 08:14:06;;;;;;;7.93;5.47;;;2.80;99.90;;;;;;5076187;28;20199;-43
2021/01/14 08:16:38;;;;;;;9.33;7.13;;;2.80;99.90;;;;;;5075831;28;20232;-41
2021/01/14 08:19:33;;;;;;;8.13;5.77;;;2.90;99.90;;;;;;5075807;28;20348;-41
2021/01/14 08:22:13;;;;;;;10.70;7.47;;;2.90;99.90;;;;;;5076138;28;20361;-41
2021/01/14 08:24:47;;;;;;;7.80;6.90;;;2.90;99.90;;;;;;5075890;28;20293;-41
2021/01/14 08:27:33;;;;;;;6.57;5.87;;;2.90;99.90;;;;;;5076001;28;20207;-41
2021/01/14 08:30:06;;;;;;;7.97;6.40;;;2.80;99.90;;;;;;5075581;28;20210;-43
2021/01/14 08:32:39;;;;;;;8.53;6.67;;;2.80;99.90;;;;;;5075591;28;20299;-42
2021/01/14 08:35:30;;;;;;;7.77;6.13;;;2.90;99.90;;;;;;5075691;28;20211;-43
2021/01/14 08:38:00;;;;;;;6.65;5.95;;;2.90;99.90;;;;;;5075649;28;20214;-41
2021/01/14 08:40:29;;;;;;;9.13;6.90;;;3.00;99.90;;;;;;5075451;28;20222;-42
2021/01/14 08:43:02;;;;;;;9.77;6.33;;;3.10;99.90;;;;;;5075511;28;20258;-41
2021/01/14 08:45:31;;;;;;;8.87;7.23;;;3.20;99.90;;;;;;5075297;28;20203;-41
2021/01/14 08:48:06;;;;;;;7.97;6.70;;;3.20;99.90;;;;;;5075516;28;20216;-41
2021/01/14 08:50:38;;;;;;;7.22;6.50;;;3.30;99.90;;;;;;5075157;28;20261;-41
2021/01/14 08:53:07;;;;;;;8.52;6.72;;;3.30;99.90;;;;;;5075149;28;20716;-41
2021/01/14 08:55:35;;;;;;;6.77;6.17;;;3.30;99.90;;;;;;5075058;28;20234;-41
2021/01/14 08:58:06;;;;;;;7.63;6.40;;;3.30;99.90;;;;;;5075254;28;20286;-42
2021/01/14 09:00:34;;;;;;;9.63;8.63;;;3.30;99.90;;;;;;5075057;28;20692;-40
2021/01/14 09:03:01;;;;;;;9.43;7.53;;;3.20;99.90;;;;;;5074793;28;20263;-43
2021/01/14 09:05:28;;;;;;;21.70;15.57;;;3.20;99.90;;;;;;5074927;28;20294;-40
2021/01/14 09:08:05;;;;;;;8.63;7.77;;;3.20;99.90;;;;;;5074782;28;20276;-41
2021/01/14 09:10:50;;;;;;;10.30;7.93;;;3.20;99.90;;;;;;5074896;28;20207;-41
2021/01/14 09:13:19;;;;;;;10.70;9.70;;;3.20;99.90;;;;;;5074927;28;20777;-41
2021/01/14 09:15:47;;;;;;;10.53;7.53;;;3.30;99.90;;;;;;5074615;28;20212;-40
2021/01/14 09:18:15;;;;;;;7.10;6.30;;;3.30;99.90;;;;;;5074509;28;20257;-43
2021/01/14 09:20:52;;;;;;;6.37;5.67;;;3.30;99.90;;;;;;5074359;28;20256;-42
2021/01/14 09:23:24;;;;;;;11.57;8.97;;;3.20;99.90;;;;;;5074545;28;20226;-42
2021/01/14 09:25:54;;;;;;;9.03;7.63;;;3.20;99.90;;;;;;5074501;28;20356;-46
2021/01/14 09:28:23;;;;;;;46.22;23.77;;;3.20;99.90;;;;;;5074336;28;20251;-44
2021/01/14 09:30:55;;;;;;;28.27;21.40;;;3.20;99.90;;;;;;5074288;28;20211;-42
2021/01/14 09:33:23;;;;;;;11.57;10.23;;;3.30;99.90;;;;;;5074553;28;20231;-41
2021/01/14 09:35:58;;;;;;;8.83;8.03;;;3.40;99.90;;;;;;5074188;28;20226;-42
2021/01/14 09:38:26;;;;;;;8.50;6.77;;;3.50;99.90;;;;;;5073740;28;20606;-44
2021/01/14 09:40:54;;;;;;;9.53;6.80;;;3.50;99.90;;;;;;5073810;28;20211;-43
2021/01/14 09:43:24;;;;;;;8.60;6.73;;;3.60;99.90;;;;;;5073958;28;20255;-41
2021/01/14 09:45:51;;;;;;;7.63;6.47;;;3.50;99.90;;;;;;5074129;28;20265;-41
2021/01/14 09:48:20;;;;;;;9.77;8.83;;;3.50;99.90;;;;;;5074181;28;20203;-40
2021/01/14 09:50:48;;;;;;;8.90;7.23;;;3.40;99.90;;;;;;5074073;28;20246;-40
2021/01/14 09:53:15;;;;;;;7.67;6.87;;;3.50;99.90;;;;;;5074130;28;20291;-40
2021/01/14 09:55:42;;;;;;;11.37;8.20;;;3.50;99.90;;;;;;5073755;28;20669;-40
2021/01/14 09:58:18;;;;;;;9.30;7.77;;;3.40;99.90;;;;;;5074135;28;20247;-40
2021/01/14 10:00:47;;;;;;;8.97;7.30;;;3.40;99.90;;;;;;5073311;28;20665;-42
2021/01/14 10:03:16;;;;;;;10.17;8.57;;;3.50;99.90;;;;;;5073527;28;20223;-42
2021/01/14 10:06:00;;;;;;;8.33;7.53;;;3.50;99.90;;;;;;5073398;28;20676;-40
2021/01/14 10:08:30;;;;;;;9.20;7.72;;;3.60;99.90;;;;;;5073400;28;20307;-41
2021/01/14 10:10:58;;;;;;;8.55;7.57;;;3.70;99.90;;;;;;5073651;28;20691;-41
2021/01/14 10:13:26;;;;;;;9.50;8.70;;;3.70;99.90;;;;;;5073329;28;20653;-41
2021/01/14 10:16:09;;;;;;;10.03;8.40;;;3.70;99.90;;;;;;5073249;28;20207;-41
2021/01/14 10:18:37;;;;;;;13.57;6.80;;;3.60;99.90;;;;;;5073595;28;20278;-42
2021/01/14 10:21:04;;;;;;;10.47;7.23;;;3.60;99.90;;;;;;5073422;28;20211;-42
2021/01/14 10:23:33;;;;;;;9.88;6.88;;;3.60;99.90;;;;;;5073240;28;20270;-42
2021/01/14 10:26:00;;;;;;;8.77;6.90;;;3.60;99.90;;;;;;5073236;28;20290;-41
2021/01/14 10:28:28;;;;;;;7.30;6.30;;;3.60;99.90;;;;;;5073275;28;20256;-42
2021/01/14 10:30:55;;;;;;;9.90;7.27;;;3.60;99.90;;;;;;5072781;28;20235;-42
2021/01/14 10:33:22;;;;;;;8.67;5.77;;;3.60;99.90;;;;;;5072199;28;20688;-43
2021/01/14 10:35:55;;;;;;;8.53;6.60;;;3.60;99.90;;;;;;5073110;28;20285;-42
2021/01/14 10:38:22;;;;;;;8.00;7.10;;;3.70;99.90;;;;;;5072717;28;20611;-43
2021/01/14 10:40:51;;;;;;;11.73;9.63;;;3.70;99.90;;;;;;5072989;28;20366;-42
2021/01/14 10:43:34;;;;;;;12.65;8.65;;;3.60;99.90;;;;;;5072985;28;20309;-43
2021/01/14 10:46:03;;;;;;;12.63;10.57;;;3.60;99.90;;;;;;5072866;28;20294;-43
2021/01/14 10:48:36;;;;;;;6.33;5.73;;;3.60;99.90;;;;;;5073004;28;20203;-42
2021/01/14 10:51:04;;;;;;;10.98;6.00;;;3.60;99.90;;;;;;5072714;28;20723;-43
2021/01/14 10:53:32;;;;;;;8.13;6.15;;;3.50;99.90;;;;;;5072676;28;20613;-43
2021/01/14 10:56:02;;;;;;;7.93;7.23;;;3.40;99.90;;;;;;5072557;28;20211;-42
2021/01/14 10:58:29;;;;;;;10.70;7.00;;;3.40;99.90;;;;;;5072548;28;20208;-42
2021/01/14 11:00:57;;;;;;;9.10;6.60;;;3.30;99.90;;;;;;5072888;28;20700;-45
2021/01/14 11:03:35;;;;;;;19.58;15.68;;;3.20;99.90;;;;;;5072481;28;20222;-43
2021/01/14 11:06:03;;;;;;;16.03;9.00;;;3.20;99.90;;;;;;5072413;28;20230;-43
2021/01/14 11:08:39;;;;;;;9.23;6.43;;;3.20;99.90;;;;;;5072376;28;20611;-44
2021/01/14 11:11:08;;;;;;;9.60;8.23;;;3.10;99.90;;;;;;5072659;28;20619;-43
2021/01/14 11:13:42;;;;;;;9.70;7.80;;;3.10;99.90;;;;;;5072263;28;20274;-43
2021/01/14 11:16:11;;;;;;;11.60;7.73;;;3.10;99.90;;;;;;5072524;28;20215;-43
2021/01/14 11:18:40;;;;;;;7.00;5.10;;;3.10;99.90;;;;;;5072157;28;20235;-42
2021/01/14 11:21:07;;;;;;;5.40;4.60;;;3.10;99.90;;;;;;5072416;28;20207;-42
2021/01/14 11:23:35;;;;;;;8.80;4.80;;;3.00;99.90;;;;;;5072113;28;20339;-43
2021/01/14 11:26:02;;;;;;;6.70;5.27;;;2.90;99.90;;;;;;5072253;28;20294;-42
2021/01/14 11:28:30;;;;;;;5.77;3.33;;;2.80;99.90;;;;;;5072061;28;20249;-43
2021/01/14 11:30:57;;;;;;;5.87;4.20;;;2.80;99.90;;;;;;5072190;28;20247;-42
2021/01/14 11:33:28;;;;;;;6.37;3.30;;;2.70;99.90;;;;;;5071870;28;20199;-43
2021/01/14 11:35:55;;;;;;;7.05;3.83;;;2.70;99.90;;;;;;5072156;28;20203;-45
2021/01/14 11:38:22;;;;;;;6.27;4.23;;;2.70;99.90;;;;;;5072206;28;20261;-41
2021/01/14 11:40:50;;;;;;;6.07;4.37;;;2.70;99.90;;;;;;5072088;28;20222;-43
2021/01/14 11:43:17;;;;;;;5.63;3.80;;;2.70;99.90;;;;;;5071876;28;20224;-42
2021/01/14 11:45:44;;;;;;;6.27;3.70;;;2.70;99.90;;;;;;5071743;28;20203;-42
2021/01/14 11:48:11;;;;;;;4.67;3.77;;;2.70;99.90;;;;;;5072006;28;20208;-42
2021/01/14 11:50:39;;;;;;;4.50;4.10;;;2.80;99.90;;;;;;5071575;28;20234;-44
2021/01/14 11:53:05;;;;;;;9.33;5.67;;;2.80;99.90;;;;;;5071694;28;20306;-41
2021/01/14 11:55:32;;;;;;;8.47;4.17;;;2.80;99.90;;;;;;5071475;28;20717;-44
2021/01/14 11:58:00;;;;;;;4.53;3.70;;;2.80;99.90;;;;;;5071718;28;20218;-42
2021/01/14 12:00:27;;;;;;;8.67;4.10;;;2.90;99.90;;;;;;5071618;28;20688;-43
2021/01/14 12:02:54;;;;;;;6.67;3.37;;;2.90;99.90;;;;;;5071660;28;20250;-41
2021/01/14 12:05:21;;;;;;;5.83;4.20;;;3.00;99.90;;;;;;5071766;28;20211;-42
2021/01/14 12:07:49;;;;;;;9.30;3.77;;;3.00;99.90;;;;;;5071714;28;20208;-43
2021/01/14 12:10:17;;;;;;;4.73;3.67;;;3.10;99.90;;;;;;5071511;28;20630;-43
2021/01/14 12:12:44;;;;;;;6.40;4.27;;;3.10;99.90;;;;;;5071288;28;20677;-43
2021/01/14 12:15:12;;;;;;;6.93;4.90;;;3.20;99.90;;;;;;5071363;28;20290;-42
2021/01/14 12:17:39;;;;;;;3.87;3.00;;;3.20;99.90;;;;;;5071645;28;20398;-42
2021/01/14 12:20:07;;;;;;;5.53;3.80;;;3.30;99.90;;;;;;5071653;28;20286;-45
2021/01/14 12:22:38;;;;;;;6.00;3.67;;;3.40;99.90;;;;;;5071334;28;20298;-42
2021/01/14 12:25:08;;;;;;;5.20;4.70;;;3.40;99.90;;;;;;5071588;28;20270;-43
2021/01/14 12:27:36;;;;;;;7.60;3.90;;;3.50;99.90;;;;;;5071433;28;20245;-43
2021/01/14 12:30:05;;;;;;;6.30;5.07;;;3.50;99.90;;;;;;5071769;28;20290;-44
2021/01/14 12:32:33;;;;;;;3.97;3.20;;;3.60;99.90;;;;;;5071737;28;20300;-43
2021/01/14 12:35:00;;;;;;;6.72;4.97;;;3.60;99.90;;;;;;5071721;28;20262;-42
2021/01/14 12:37:31;;;;;;;6.30;4.90;;;3.60;99.80;;;;;;5071491;28;20229;-42
2021/01/14 12:39:58;;;;;;;8.03;5.43;;;3.60;99.80;;;;;;5071430;28;20572;-43
2021/01/14 12:42:26;;;;;;;6.57;3.83;;;3.60;99.70;;;;;;5071691;28;20222;-45
2021/01/14 12:44:53;;;;;;;9.00;4.20;;;3.50;99.60;;;;;;5071535;28;20267;-43
2021/01/14 12:47:20;;;;;;;6.87;4.17;;;3.50;99.60;;;;;;5071420;28;20310;-43
2021/01/14 12:49:47;;;;;;;6.50;3.37;;;3.50;99.70;;;;;;5071511;28;20204;-43
2021/01/14 12:52:14;;;;;;;5.37;3.40;;;3.50;99.70;;;;;;5071148;28;20238;-44
2021/01/14 12:54:42;;;;;;;6.38;3.45;;;3.50;99.40;;;;;;5071179;28;20349;-43
2021/01/14 12:57:09;;;;;;;8.63;7.80;;;3.40;99.60;;;;;;5075151;28;20254;-43
2021/01/14 12:59:36;;;;;;;4.83;2.47;;;3.40;99.40;;;;;;5074910;28;20296;-43
2021/01/14 13:02:07;;;;;;;6.50;4.03;;;3.40;99.50;;;;;;5075233;28;20265;-43
2021/01/14 13:04:34;;;;;;;4.47;3.00;;;3.30;99.40;;;;;;5074889;28;20306;-44
2021/01/14 13:07:01;;;;;;;8.63;7.90;;;3.30;99.50;;;;;;5074768;28;20812;-43
2021/01/14 13:09:28;;;;;;;5.63;3.57;;;3.30;99.40;;;;;;5074899;28;20309;-43